createdAt,value
2022-11-02T00:00:14.812Z,64.50
2022-11-02T00:01:48.471Z,64.60
2022-11-02T00:03:21.716Z,64.50
2022-11-02T00:04:54.870Z,64.60
2022-11-02T00:06:28.012Z,64.70
2022-11-02T00:08:02.653Z,64.60
2022-11-02T00:09:35.810Z,64.70
2022-11-02T00:11:09.247Z,64.80
2022-11-02T00:12:42.327Z,64.70
2022-11-02T00:14:14.529Z,64.70
2022-11-02T00:15:48.085Z,64.50
2022-11-02T00:17:21.318Z,64.50
2022-11-02T00:18:59.129Z,64.30
2022-11-02T00:20:33.147Z,64.20
2022-11-02T00:22:06.517Z,64.20
2022-11-02T00:23:42.515Z,64.30
2022-11-02T00:25:18.432Z,64.40
2022-11-02T00:26:51.624Z,64.40
2022-11-02T00:28:24.434Z,64.30
2022-11-02T00:29:58.071Z,64.40
2022-11-02T00:31:31.380Z,64.20
2022-11-02T00:33:04.050Z,64.10
2022-11-02T00:34:37.583Z,63.90
2022-11-02T00:36:11.046Z,63.70
2022-11-02T00:37:44.194Z,63.60
2022-11-02T00:39:18.662Z,63.30
2022-11-02T00:40:51.851Z,63.20
2022-11-02T00:42:26.141Z,63.20
2022-11-02T00:43:59.363Z,63.30
2022-11-02T00:45:32.965Z,63.20
2022-11-02T00:47:06.715Z,63.10
2022-11-02T00:48:40.097Z,63.00
2022-11-02T00:50:13.768Z,62.80
2022-11-02T00:51:46.295Z,62.70
2022-11-02T00:53:21.406Z,63.00
2022-11-02T00:54:59.916Z,63.20
2022-11-02T00:56:33.219Z,63.00
2022-11-02T00:58:09.271Z,62.80
2022-11-02T00:59:42.449Z,62.70
2022-11-02T01:01:15.896Z,62.80
2022-11-02T01:02:49.228Z,62.70
2022-11-02T01:04:22.588Z,63.70
2022-11-02T01:05:55.737Z,62.90
2022-11-02T01:07:30.125Z,62.80
2022-11-02T01:09:03.273Z,62.90
2022-11-02T01:10:37.833Z,62.90
2022-11-02T01:12:10.994Z,62.90
2022-11-02T01:13:45.595Z,62.90
2022-11-02T01:15:18.953Z,62.70
2022-11-02T01:16:51.208Z,62.90
2022-11-02T01:18:25.101Z,62.30
2022-11-02T01:19:57.376Z,62.20
2022-11-02T01:21:31.275Z,62.00
2022-11-02T01:23:04.426Z,61.90
2022-11-02T01:24:38.367Z,61.90
2022-11-02T01:26:13.256Z,61.70
2022-11-02T01:27:46.876Z,61.70
2022-11-02T01:29:20.583Z,61.60
2022-11-02T01:30:54.091Z,61.60
2022-11-02T01:32:30.003Z,61.50
2022-11-02T01:34:03.196Z,61.40
2022-11-02T01:35:38.316Z,61.30
2022-11-02T01:37:11.609Z,61.30
2022-11-02T01:38:45.176Z,61.20
2022-11-02T01:40:18.854Z,61.20
2022-11-02T01:41:55.263Z,61.20
2022-11-02T01:43:33.121Z,61.10
2022-11-02T01:45:07.752Z,61.20
2022-11-02T01:46:46.578Z,61.10
2022-11-02T01:48:25.811Z,61.10
2022-11-02T01:50:05.847Z,61.10
2022-11-02T01:51:46.454Z,61.00
2022-11-02T01:53:19.593Z,60.80
2022-11-02T01:55:02.157Z,60.90
2022-11-02T01:56:38.938Z,60.80
2022-11-02T01:58:14.080Z,60.70
2022-11-02T01:59:53.779Z,60.70
2022-11-02T02:01:27.867Z,60.70
2022-11-02T02:03:09.034Z,60.60
2022-11-02T02:04:45.306Z,60.60
2022-11-02T02:06:18.703Z,60.50
2022-11-02T02:07:53.724Z,60.50
2022-11-02T02:09:29.758Z,60.70
2022-11-02T02:11:03.454Z,60.60
2022-11-02T02:12:42.578Z,60.70
2022-11-02T02:14:20.806Z,60.70
2022-11-02T02:16:10.688Z,60.60
2022-11-02T02:17:51.256Z,60.70
2022-11-02T02:19:38.397Z,60.50
2022-11-02T02:21:30.181Z,60.30
2022-11-02T02:23:39.358Z,60.70
2022-11-02T02:25:46.252Z,60.60
2022-11-02T02:27:24.944Z,60.40
2022-11-02T02:29:10.048Z,60.40
2022-11-02T02:30:51.540Z,60.50
2022-11-02T02:32:36.573Z,60.50
2022-11-02T02:34:19.317Z,60.50
2022-11-02T02:36:00.714Z,61.40
2022-11-02T02:37:41.398Z,60.40
2022-11-02T02:39:22.709Z,60.10
2022-11-02T02:41:07.618Z,60.10
2022-11-02T02:42:47.976Z,60.20
2022-11-02T02:44:30.444Z,60.10
2022-11-02T02:46:10.560Z,60.00
2022-11-02T02:47:50.842Z,59.90
2022-11-02T02:49:31.660Z,59.90
2022-11-02T02:51:09.815Z,59.90
2022-11-02T02:52:49.115Z,59.70
2022-11-02T02:54:29.820Z,59.70
2022-11-02T02:56:05.793Z,59.70
2022-11-02T02:57:39.706Z,59.90
2022-11-02T02:59:23.439Z,59.80
2022-11-02T03:01:02.463Z,59.80
2022-11-02T03:02:40.255Z,59.80
2022-11-02T03:04:15.226Z,59.70
2022-11-02T03:06:06.292Z,59.60
2022-11-02T03:07:42.043Z,59.60
2022-11-02T03:09:30.181Z,59.60
2022-11-02T03:11:14.892Z,59.60
2022-11-02T03:13:02.660Z,59.50
2022-11-02T03:14:50.665Z,59.50
2022-11-02T03:16:50.579Z,59.40
2022-11-02T03:18:37.400Z,59.50
2022-11-02T03:20:23.966Z,59.40
2022-11-02T03:22:05.581Z,59.50
2022-11-02T03:23:45.282Z,59.40
2022-11-02T03:25:24.828Z,59.40
2022-11-02T03:27:15.143Z,59.40
2022-11-02T03:29:01.127Z,59.40
2022-11-02T03:30:43.419Z,59.40
2022-11-02T03:32:25.174Z,59.40
2022-11-02T03:34:17.261Z,59.40
2022-11-02T03:36:01.199Z,59.40
2022-11-02T03:37:42.187Z,59.40
2022-11-02T03:39:21.699Z,59.50
2022-11-02T03:40:58.636Z,59.40
2022-11-02T03:42:34.670Z,59.40
2022-11-02T03:44:15.975Z,59.30
2022-11-02T03:45:55.683Z,59.40
2022-11-02T03:47:34.503Z,59.40
2022-11-02T03:49:17.843Z,59.40
2022-11-02T03:50:54.737Z,59.40
2022-11-02T03:52:33.299Z,59.40
2022-11-02T03:54:14.819Z,59.40
2022-11-02T03:55:55.060Z,59.40
2022-11-02T03:57:35.041Z,59.40
2022-11-02T03:59:09.371Z,59.30
2022-11-02T04:00:52.817Z,59.30
2022-11-02T04:02:26.816Z,59.30
2022-11-02T04:04:02.554Z,59.30
2022-11-02T04:05:38.041Z,59.30
2022-11-02T04:07:26.472Z,59.40
2022-11-02T04:09:00.401Z,59.40
2022-11-02T04:10:33.996Z,59.40
2022-11-02T04:12:25.136Z,59.40
2022-11-02T04:14:15.931Z,59.40
2022-11-02T04:15:52.948Z,59.40
2022-11-02T04:17:43.866Z,59.50
2022-11-02T04:19:30.111Z,59.50
2022-11-02T04:21:07.605Z,59.40
2022-11-02T04:22:58.494Z,59.40
2022-11-02T04:24:50.635Z,59.40
2022-11-02T04:26:24.518Z,60.10
2022-11-02T04:28:09.822Z,59.40
2022-11-02T04:29:49.848Z,59.40
2022-11-02T04:31:23.483Z,59.40
2022-11-02T04:33:14.288Z,59.90
2022-11-02T04:34:56.398Z,59.40
2022-11-02T04:36:31.457Z,59.30
2022-11-02T04:38:23.224Z,59.40
2022-11-02T04:39:55.864Z,59.40
2022-11-02T04:41:44.367Z,59.30
2022-11-02T04:43:31.678Z,59.30
2022-11-02T04:45:05.487Z,59.20
2022-11-02T04:46:40.207Z,59.20
2022-11-02T04:48:15.114Z,59.20
2022-11-02T04:49:49.169Z,59.20
2022-11-02T04:51:29.008Z,59.10
2022-11-02T04:53:05.200Z,59.20
2022-11-02T04:54:39.278Z,59.10
2022-11-02T04:56:12.198Z,59.10
2022-11-02T04:57:46.448Z,59.10
2022-11-02T04:59:19.735Z,59.20
2022-11-02T05:00:52.690Z,59.20
2022-11-02T05:02:25.988Z,59.20
2022-11-02T05:03:59.410Z,59.30
2022-11-02T05:05:35.410Z,59.30
2022-11-02T05:07:11.935Z,59.40
2022-11-02T05:08:45.735Z,59.50
2022-11-02T05:10:19.111Z,59.50
2022-11-02T05:11:52.807Z,59.50
2022-11-02T05:13:27.858Z,59.50
2022-11-02T05:15:04.765Z,59.60
2022-11-02T05:16:38.095Z,59.70
2022-11-02T05:18:12.608Z,59.70
2022-11-02T05:19:49.400Z,59.80
2022-11-02T05:21:24.068Z,59.90
2022-11-02T05:23:00.895Z,59.90
2022-11-02T05:24:35.564Z,60.00
2022-11-02T05:26:12.126Z,59.90
2022-11-02T05:27:49.036Z,60.30
2022-11-02T05:29:22.243Z,59.90
2022-11-02T05:30:59.759Z,59.90
2022-11-02T05:32:33.849Z,60.00
2022-11-02T05:34:08.229Z,60.10
2022-11-02T05:35:41.774Z,60.10
2022-11-02T05:37:13.938Z,60.30
2022-11-02T05:38:48.513Z,60.20
2022-11-02T05:40:22.356Z,60.20
2022-11-02T05:41:56.041Z,60.30
2022-11-02T05:43:29.300Z,60.30
2022-11-02T05:45:03.449Z,60.30
2022-11-02T05:46:36.667Z,60.30
2022-11-02T05:48:10.023Z,60.20
2022-11-02T05:49:43.320Z,60.30
2022-11-02T05:51:16.568Z,60.20
2022-11-02T05:52:49.730Z,60.00
2022-11-02T05:54:24.516Z,60.00
2022-11-02T05:56:00.104Z,59.80
2022-11-02T05:57:33.452Z,59.90
2022-11-02T05:59:07.185Z,59.70
2022-11-02T06:00:40.529Z,59.80
2022-11-02T06:02:13.683Z,59.70
2022-11-02T06:03:52.078Z,59.70
2022-11-02T06:05:27.416Z,59.70
2022-11-02T06:07:00.827Z,59.70
2022-11-02T06:08:35.160Z,59.70
2022-11-02T06:10:10.694Z,59.60
2022-11-02T06:11:44.953Z,59.50
2022-11-02T06:13:17.154Z,59.50
2022-11-02T06:14:50.292Z,59.40
2022-11-02T06:16:23.641Z,59.40
2022-11-02T06:17:57.133Z,59.30
2022-11-02T06:19:30.294Z,59.30
2022-11-02T06:21:04.004Z,59.20
2022-11-02T06:22:41.248Z,59.30
2022-11-02T06:24:14.536Z,60.00
2022-11-02T06:25:54.087Z,59.30
2022-11-02T06:27:27.365Z,59.20
2022-11-02T06:29:00.680Z,59.20
2022-11-02T06:30:34.628Z,59.10
2022-11-02T06:32:07.854Z,59.00
2022-11-02T06:33:42.015Z,59.00
2022-11-02T06:35:15.513Z,59.00
2022-11-02T06:36:48.808Z,58.90
2022-11-02T06:38:22.365Z,58.90
2022-11-02T06:39:55.457Z,58.90
2022-11-02T06:41:30.003Z,59.00
2022-11-02T06:43:16.148Z,58.90
2022-11-02T06:44:50.129Z,58.90
2022-11-02T06:46:23.289Z,58.90
2022-11-02T06:47:56.469Z,58.80
2022-11-02T06:49:29.684Z,58.80
2022-11-02T06:51:03.640Z,58.80
2022-11-02T06:52:36.795Z,58.60
2022-11-02T06:54:09.909Z,58.40
2022-11-02T06:55:43.160Z,58.30
2022-11-02T06:57:17.652Z,58.30
2022-11-02T06:58:50.775Z,58.30
2022-11-02T07:00:24.262Z,58.30
2022-11-02T07:01:57.974Z,58.30
2022-11-02T07:03:31.958Z,58.00
2022-11-02T07:05:06.259Z,57.90
2022-11-02T07:06:39.454Z,57.90
2022-11-02T07:08:12.607Z,57.90
2022-11-02T07:09:45.917Z,57.80
2022-11-02T07:11:19.426Z,57.80
2022-11-02T07:12:56.116Z,57.90
2022-11-02T07:14:29.257Z,57.80
2022-11-02T07:16:02.536Z,57.80
2022-11-02T07:17:35.761Z,57.80
2022-11-02T07:19:09.058Z,57.80
2022-11-02T07:20:42.191Z,57.80
2022-11-02T07:22:15.854Z,57.70
2022-11-02T07:23:49.754Z,57.70
2022-11-02T07:25:25.305Z,57.70
2022-11-02T07:26:58.746Z,57.70
2022-11-02T07:28:33.222Z,57.50
2022-11-02T07:30:08.614Z,57.50
2022-11-02T07:31:41.748Z,57.40
2022-11-02T07:33:15.037Z,57.50
2022-11-02T07:34:48.172Z,57.40
2022-11-02T07:36:21.476Z,57.40
2022-11-02T07:37:59.430Z,57.40
2022-11-02T07:39:32.616Z,57.40
2022-11-02T07:41:06.167Z,57.40
2022-11-02T07:42:47.084Z,57.40
2022-11-02T07:44:25.086Z,57.20
2022-11-02T07:46:04.377Z,57.10
2022-11-02T07:47:44.229Z,57.00
2022-11-02T07:49:21.323Z,56.80
2022-11-02T07:50:55.101Z,56.80
2022-11-02T07:52:28.271Z,56.80
2022-11-02T07:54:02.805Z,56.80
2022-11-02T07:55:36.779Z,56.70
2022-11-02T07:57:10.109Z,56.70
2022-11-02T07:58:43.428Z,56.70
2022-11-02T08:00:19.074Z,56.70
2022-11-02T08:01:52.320Z,56.70
2022-11-02T08:03:25.705Z,56.70
2022-11-02T08:04:58.977Z,56.50
2022-11-02T08:06:32.143Z,56.40
2022-11-02T08:08:08.993Z,56.40
2022-11-02T08:09:42.363Z,56.20
2022-11-02T08:11:15.583Z,56.10
2022-11-02T08:12:49.362Z,56.10
2022-11-02T08:14:22.661Z,56.10
2022-11-02T08:15:57.092Z,56.10
2022-11-02T08:17:30.428Z,55.90
2022-11-02T08:19:03.620Z,55.90
2022-11-02T08:20:37.792Z,55.80
2022-11-02T08:22:10.982Z,56.50
2022-11-02T08:23:44.143Z,55.80
2022-11-02T08:25:17.537Z,55.80
2022-11-02T08:26:53.907Z,55.70
2022-11-02T08:28:32.830Z,55.70
2022-11-02T08:30:07.262Z,55.70
2022-11-02T08:31:43.202Z,55.60
2022-11-02T08:33:19.190Z,55.50
2022-11-02T08:34:52.514Z,55.40
2022-11-02T08:36:25.912Z,55.30
2022-11-02T08:38:00.071Z,55.20
2022-11-02T08:39:33.220Z,55.20
2022-11-02T08:41:06.906Z,55.10
2022-11-02T08:42:40.559Z,55.20
2022-11-02T08:44:14.884Z,55.10
2022-11-02T08:47:44.369Z,55.30
2022-11-02T08:49:18.925Z,55.10
2022-11-02T08:50:52.095Z,55.20
2022-11-02T08:52:25.184Z,55.30
2022-11-02T08:53:58.378Z,55.20
2022-11-02T08:55:31.732Z,55.20
2022-11-02T08:57:04.989Z,55.20
2022-11-02T08:58:38.220Z,55.20
2022-11-02T09:00:13.325Z,55.10
2022-11-02T09:01:49.615Z,55.00
2022-11-02T09:03:27.347Z,55.00
2022-11-02T09:05:00.744Z,54.90
2022-11-02T09:06:33.938Z,55.00
2022-11-02T09:08:09.390Z,54.70
2022-11-02T09:09:42.947Z,54.60
2022-11-02T09:11:16.367Z,54.60
2022-11-02T09:12:49.495Z,54.50
2022-11-02T09:14:22.795Z,54.60
2022-11-02T09:15:57.825Z,54.40
2022-11-02T09:17:31.147Z,54.40
2022-11-02T09:19:05.634Z,54.30
2022-11-02T09:20:39.119Z,54.20
2022-11-02T09:22:12.293Z,54.20
2022-11-02T09:23:48.309Z,54.10
2022-11-02T09:25:21.447Z,54.10
2022-11-02T09:26:54.924Z,54.00
2022-11-02T09:28:28.127Z,54.00
2022-11-02T09:30:01.297Z,54.00
2022-11-02T09:31:34.501Z,53.90
2022-11-02T09:33:09.225Z,54.10
2022-11-02T09:34:44.076Z,54.00
2022-11-02T09:36:17.285Z,53.80
2022-11-02T09:37:51.183Z,53.90
2022-11-02T09:39:24.859Z,53.70
2022-11-02T09:41:13.074Z,53.50
2022-11-02T09:43:02.620Z,53.40
2022-11-02T09:44:50.268Z,53.30
2022-11-02T09:46:27.970Z,53.00
2022-11-02T09:48:17.141Z,53.20
2022-11-02T09:49:56.677Z,53.50
2022-11-02T09:51:36.551Z,53.40
2022-11-02T09:53:15.724Z,53.40
2022-11-02T09:54:54.262Z,53.30
2022-11-02T09:56:28.478Z,53.30
2022-11-02T09:58:13.774Z,53.00
2022-11-02T09:59:47.050Z,52.70
2022-11-02T10:01:44.299Z,52.70
2022-11-02T10:03:38.044Z,52.40
2022-11-02T10:05:28.400Z,52.00
2022-11-02T10:07:11.367Z,51.70
2022-11-02T10:08:57.153Z,51.80
2022-11-02T10:10:37.757Z,51.40
2022-11-02T10:12:16.483Z,51.10
2022-11-02T10:13:57.217Z,50.70
2022-11-02T10:15:39.006Z,50.50
2022-11-02T10:17:18.896Z,50.30
2022-11-02T10:18:56.079Z,50.40
2022-11-02T10:20:39.877Z,50.30
2022-11-02T10:22:16.580Z,49.80
2022-11-02T10:23:53.604Z,49.80
2022-11-02T10:25:27.677Z,49.40
2022-11-02T10:27:04.536Z,49.40
2022-11-02T10:28:43.819Z,49.30
2022-11-02T10:30:19.753Z,49.30
2022-11-02T10:31:53.160Z,49.40
2022-11-02T10:33:29.191Z,49.30
2022-11-02T10:35:26.312Z,49.10
2022-11-02T10:37:23.457Z,49.10
2022-11-02T10:39:13.110Z,49.00
2022-11-02T10:41:10.561Z,48.80
2022-11-02T10:43:01.318Z,48.90
2022-11-02T10:45:00.257Z,48.90
2022-11-02T10:46:49.906Z,48.90
2022-11-02T10:48:37.256Z,48.60
2022-11-02T10:50:45.824Z,48.60
2022-11-02T10:52:21.737Z,48.50
2022-11-02T10:53:56.545Z,48.80
2022-11-02T10:55:47.390Z,48.80
2022-11-02T10:57:25.535Z,48.70
2022-11-02T10:59:04.510Z,48.70
2022-11-02T11:00:39.561Z,48.80
2022-11-02T11:02:14.571Z,48.90
2022-11-02T11:03:57.743Z,48.80
2022-11-02T11:05:31.425Z,49.40
2022-11-02T11:07:08.289Z,49.00
2022-11-02T11:08:49.743Z,48.90
2022-11-02T11:10:25.683Z,48.90
2022-11-02T11:12:03.142Z,48.90
2022-11-02T11:15:49.934Z,49.00
2022-11-02T11:21:10.618Z,48.10
2022-11-02T11:22:43.817Z,48.30
2022-11-02T11:24:29.369Z,48.40
2022-11-02T11:26:05.313Z,48.30
2022-11-02T11:27:46.825Z,48.50
2022-11-02T11:29:24.385Z,47.30
2022-11-02T11:31:12.715Z,47.40
2022-11-02T11:32:49.500Z,46.90
2022-11-02T11:34:27.670Z,47.40
2022-11-02T11:36:01.573Z,47.10
2022-11-02T11:37:35.291Z,47.30
2022-11-02T11:39:29.193Z,47.10
2022-11-02T11:41:06.025Z,46.50
2022-11-02T11:42:42.718Z,46.70
2022-11-02T11:44:17.406Z,46.60
2022-11-02T11:46:05.972Z,46.50
2022-11-02T11:47:43.628Z,45.50
2022-11-02T11:49:36.347Z,45.80
2022-11-02T11:51:30.954Z,45.30
2022-11-02T11:53:20.706Z,45.00
2022-11-02T11:54:58.555Z,44.80
2022-11-02T11:56:33.229Z,45.00
2022-11-02T11:58:14.532Z,45.00
2022-11-02T11:59:51.948Z,44.60
2022-11-02T12:01:25.356Z,44.60
2022-11-02T12:03:06.521Z,44.60
2022-11-02T12:04:40.690Z,44.10
2022-11-02T12:06:28.583Z,44.40
2022-11-02T12:08:36.288Z,43.80
2022-11-02T12:10:21.301Z,44.50
2022-11-02T12:12:06.541Z,44.10
2022-11-02T12:14:05.330Z,44.10
2022-11-02T12:16:05.188Z,43.60
2022-11-02T12:17:55.405Z,43.80
2022-11-02T12:19:47.914Z,43.90
2022-11-02T12:21:40.849Z,43.70
2022-11-02T12:23:40.657Z,43.60
2022-11-02T12:25:37.243Z,43.70
2022-11-02T12:27:27.878Z,43.90
2022-11-02T12:29:20.089Z,43.90
2022-11-02T12:31:06.372Z,44.10
2022-11-02T12:33:28.895Z,44.00
2022-11-02T12:35:30.092Z,44.00
2022-11-02T12:37:40.507Z,44.20
2022-11-02T12:39:22.036Z,44.00
2022-11-02T12:41:05.690Z,44.30
2022-11-02T12:42:49.466Z,44.20
2022-11-02T12:44:48.911Z,44.40
2022-11-02T12:46:38.965Z,44.20
2022-11-02T12:48:23.413Z,44.20
2022-11-02T12:50:14.931Z,44.40
2022-11-02T12:51:58.707Z,44.30
2022-11-02T12:53:50.003Z,44.40
2022-11-02T12:55:33.011Z,44.50
2022-11-02T12:57:17.023Z,44.80
2022-11-02T12:58:51.306Z,44.70
2022-11-02T13:00:25.924Z,44.70
2022-11-02T13:02:10.154Z,44.70
2022-11-02T13:03:55.558Z,44.70
2022-11-02T13:05:36.812Z,44.70
2022-11-02T13:07:16.225Z,45.00
2022-11-02T13:08:55.544Z,45.00
2022-11-02T13:10:35.857Z,45.10
2022-11-02T13:12:16.823Z,45.20
2022-11-02T13:13:56.913Z,45.10
2022-11-02T13:15:35.528Z,45.20
2022-11-02T13:17:16.109Z,45.30
2022-11-02T13:18:53.159Z,45.40
2022-11-02T13:20:31.612Z,45.40
2022-11-02T13:22:09.813Z,45.70
2022-11-02T13:23:50.201Z,45.70
2022-11-02T13:25:29.367Z,45.80
2022-11-02T13:27:21.669Z,46.00
2022-11-02T13:29:12.939Z,46.00
2022-11-02T13:30:48.562Z,46.00
2022-11-02T13:32:33.753Z,46.00
2022-11-02T13:34:15.524Z,45.80
2022-11-02T13:35:50.228Z,45.80
2022-11-02T13:37:26.151Z,46.00
2022-11-02T13:39:04.512Z,45.60
2022-11-02T13:40:43.786Z,45.70
2022-11-02T13:42:47.919Z,45.70
2022-11-02T13:44:59.276Z,45.30
2022-11-02T13:47:15.028Z,45.40
2022-11-02T13:48:57.437Z,45.40
2022-11-02T13:50:35.904Z,46.20
2022-11-02T13:52:15.554Z,45.50
2022-11-02T13:53:57.146Z,45.60
2022-11-02T13:55:45.778Z,45.70
2022-11-02T13:57:34.564Z,45.80
2022-11-02T13:59:10.936Z,46.00
2022-11-02T14:00:47.017Z,46.00
2022-11-02T14:02:24.287Z,46.00
2022-11-02T14:04:04.833Z,46.00
2022-11-02T14:05:49.528Z,46.00
2022-11-02T14:07:27.688Z,46.00
2022-11-02T14:09:06.852Z,46.00
2022-11-02T14:10:42.108Z,46.00
2022-11-02T14:12:41.315Z,46.00
2022-11-02T14:14:22.114Z,46.00
2022-11-02T14:15:56.756Z,46.00
2022-11-02T14:17:29.984Z,46.00
2022-11-02T14:19:25.655Z,46.00
2022-11-02T14:20:59.522Z,46.00
2022-11-02T14:22:33.230Z,46.00
2022-11-02T14:24:53.933Z,46.00
2022-11-02T14:26:54.424Z,46.30
2022-11-02T14:28:44.320Z,46.00
2022-11-02T14:30:45.770Z,46.30
2022-11-02T14:32:46.620Z,46.50
2022-11-02T14:34:40.831Z,46.50
2022-11-02T14:36:39.510Z,46.00
2022-11-02T14:38:55.385Z,45.90
2022-11-02T14:40:36.024Z,46.00
2022-11-02T14:42:38.620Z,46.00
2022-11-02T14:44:52.940Z,45.90
2022-11-02T14:46:56.767Z,46.00
2022-11-02T14:48:45.734Z,46.00
2022-11-02T14:50:21.977Z,46.00
2022-11-02T14:52:15.268Z,46.40
2022-11-02T14:53:55.052Z,46.20
2022-11-02T14:55:32.317Z,46.30
2022-11-02T14:57:16.480Z,46.50
2022-11-02T14:58:55.112Z,46.30
2022-11-02T15:00:38.052Z,46.60
2022-11-02T15:02:21.859Z,46.80
2022-11-02T15:03:56.575Z,46.30
2022-11-02T15:05:35.038Z,46.40
2022-11-02T15:07:08.349Z,47.00
2022-11-02T15:08:53.656Z,47.00
2022-11-02T15:10:53.825Z,47.40
2022-11-02T15:12:46.455Z,47.00
2022-11-02T15:14:56.847Z,46.60
2022-11-02T15:16:42.164Z,46.90
2022-11-02T15:18:32.213Z,47.40
2022-11-02T15:20:29.194Z,47.90
2022-11-02T15:22:38.880Z,48.30
2022-11-02T15:24:27.216Z,48.50
2022-11-02T15:26:06.075Z,48.50
2022-11-02T15:27:43.174Z,48.30
2022-11-02T15:29:36.378Z,48.50
2022-11-02T15:31:25.627Z,48.70
2022-11-02T15:33:06.707Z,48.90
2022-11-02T15:34:45.544Z,48.90
2022-11-02T15:36:29.963Z,49.00
2022-11-02T15:38:29.599Z,49.10
2022-11-02T15:40:04.801Z,48.90
2022-11-02T15:41:44.521Z,49.10
2022-11-02T15:44:02.511Z,49.20
2022-11-02T15:46:03.481Z,49.60
2022-11-02T15:48:01.953Z,49.50
2022-11-02T15:50:02.386Z,49.60
2022-11-02T15:51:46.911Z,49.90
2022-11-02T15:53:39.256Z,49.80
2022-11-02T15:55:21.354Z,50.00
2022-11-02T15:57:15.758Z,50.10
2022-11-02T15:59:21.551Z,50.30
2022-11-02T16:01:18.648Z,50.50
2022-11-02T16:02:54.016Z,50.50
2022-11-02T16:04:27.342Z,50.50
2022-11-02T16:06:04.892Z,50.50
2022-11-02T16:08:05.401Z,50.60
2022-11-02T16:09:40.508Z,50.70
2022-11-02T16:11:19.075Z,50.70
2022-11-02T16:13:03.371Z,50.70
2022-11-02T16:14:36.735Z,50.80
2022-11-02T16:16:15.620Z,50.70
2022-11-02T16:17:50.352Z,50.80
2022-11-02T16:19:23.649Z,50.80
2022-11-02T16:21:02.026Z,50.90
2022-11-02T16:22:35.756Z,51.70
2022-11-02T16:24:12.677Z,51.20
2022-11-02T16:25:48.323Z,51.40
2022-11-02T16:27:23.374Z,51.50
2022-11-02T16:28:59.987Z,51.50
2022-11-02T16:30:33.420Z,51.60
2022-11-02T16:32:10.986Z,51.60
2022-11-02T16:33:52.097Z,51.70
2022-11-02T16:35:28.525Z,51.70
2022-11-02T16:37:09.941Z,51.80
2022-11-02T16:38:58.091Z,51.80
2022-11-02T16:40:32.708Z,51.90
2022-11-02T16:42:17.248Z,51.90
2022-11-02T16:43:51.803Z,52.10
2022-11-02T16:45:40.299Z,52.20
2022-11-02T16:47:30.912Z,52.40
2022-11-02T16:49:18.411Z,52.40
2022-11-02T16:51:19.240Z,52.60
2022-11-02T16:52:58.693Z,52.90
2022-11-02T16:54:42.435Z,52.70
2022-11-02T16:56:28.816Z,52.80
2022-11-02T16:58:03.621Z,52.80
2022-11-02T16:59:39.501Z,52.80
2022-11-02T17:01:21.984Z,52.60
2022-11-02T17:02:56.513Z,52.70
2022-11-02T17:04:33.351Z,52.60
2022-11-02T17:06:08.673Z,52.80
2022-11-02T17:07:47.831Z,53.00
2022-11-02T17:09:29.770Z,53.70
2022-11-02T17:11:06.477Z,53.20
2022-11-02T17:12:45.481Z,53.20
2022-11-02T17:14:21.787Z,53.40
2022-11-02T17:16:10.117Z,53.30
2022-11-02T17:17:43.458Z,53.30
2022-11-02T17:19:47.332Z,53.30
2022-11-02T17:21:30.035Z,53.70
2022-11-02T17:23:06.636Z,53.50
2022-11-02T17:24:40.188Z,53.40
2022-11-02T17:26:37.350Z,53.40
2022-11-02T17:28:45.965Z,53.70
2022-11-02T17:30:45.109Z,53.80
2022-11-02T17:32:20.624Z,53.90
2022-11-02T17:33:54.637Z,53.60
2022-11-02T17:35:28.258Z,53.70
2022-11-02T17:37:01.457Z,53.70
2022-11-02T17:38:35.741Z,53.80
2022-11-02T17:40:13.108Z,53.70
2022-11-02T17:42:10.907Z,53.90
2022-11-02T17:43:45.357Z,53.90
2022-11-02T17:45:28.336Z,53.80
2022-11-02T17:47:01.953Z,54.10
2022-11-02T17:48:35.051Z,53.80
2022-11-02T17:50:10.032Z,53.90
2022-11-02T17:51:43.467Z,54.10
2022-11-02T17:53:16.660Z,54.10
2022-11-02T17:54:49.985Z,54.00
2022-11-02T17:56:23.271Z,54.00
2022-11-02T17:57:57.643Z,53.80
2022-11-02T17:59:32.201Z,54.10
2022-11-02T18:01:06.665Z,54.10
2022-11-02T18:02:41.000Z,54.20
2022-11-02T18:04:14.281Z,54.20
2022-11-02T18:05:50.945Z,54.40
2022-11-02T18:07:25.551Z,54.50
2022-11-02T18:09:14.597Z,54.50
2022-11-02T18:10:51.551Z,54.40
2022-11-02T18:12:24.851Z,54.60
2022-11-02T18:13:58.035Z,54.70
2022-11-02T18:15:34.629Z,54.80
2022-11-02T18:17:08.408Z,54.90
2022-11-02T18:18:41.636Z,54.90
2022-11-02T18:20:16.588Z,54.90
2022-11-02T18:21:49.564Z,55.00
2022-11-02T18:23:22.832Z,55.30
2022-11-02T18:24:56.097Z,54.80
2022-11-02T18:26:29.321Z,54.90
2022-11-02T18:28:03.705Z,54.90
2022-11-02T18:29:37.282Z,55.70
2022-11-02T18:31:13.398Z,55.10
2022-11-02T18:32:48.176Z,55.30
2022-11-02T18:34:21.633Z,55.40
2022-11-02T18:36:04.411Z,55.40
2022-11-02T18:37:38.624Z,55.70
2022-11-02T18:39:12.199Z,55.60
2022-11-02T18:40:45.463Z,55.70
2022-11-02T18:42:18.618Z,55.80
2022-11-02T18:43:52.086Z,55.90
2022-11-02T18:45:25.296Z,56.00
2022-11-02T18:47:00.865Z,56.00
2022-11-02T18:48:34.116Z,56.10
2022-11-02T18:50:11.053Z,56.10
2022-11-02T18:51:45.606Z,56.30
2022-11-02T18:53:18.759Z,56.30
2022-11-02T18:54:53.321Z,56.40
2022-11-02T18:56:27.528Z,56.60
2022-11-02T18:58:00.651Z,56.70
2022-11-02T18:59:34.301Z,56.70
2022-11-02T19:01:09.905Z,56.60
2022-11-02T19:02:44.702Z,56.70
2022-11-02T19:04:18.203Z,56.80
2022-11-02T19:06:15.344Z,56.80
2022-11-02T19:08:08.480Z,57.20
2022-11-02T19:09:41.911Z,57.00
2022-11-02T19:11:15.099Z,57.10
2022-11-02T19:12:48.223Z,57.10
2022-11-02T19:14:25.133Z,57.10
2022-11-02T19:16:00.087Z,57.30
2022-11-02T19:17:33.250Z,57.40
2022-11-02T19:19:08.205Z,57.40
2022-11-02T19:20:41.610Z,57.50
2022-11-02T19:22:16.036Z,57.60
2022-11-02T19:23:49.482Z,57.70
2022-11-02T19:25:22.629Z,57.70
2022-11-02T19:27:05.914Z,57.80
2022-11-02T19:28:41.135Z,57.80
2022-11-02T19:30:15.027Z,57.90
2022-11-02T19:31:48.227Z,58.00
2022-11-02T19:33:21.377Z,58.10
2022-11-02T19:34:55.866Z,58.10
2022-11-02T19:36:30.153Z,58.10
2022-11-02T19:38:03.504Z,58.20
2022-11-02T19:39:37.216Z,58.30
2022-11-02T19:41:14.493Z,58.50
2022-11-02T19:42:49.888Z,58.50
2022-11-02T19:44:23.217Z,58.70
2022-11-02T19:46:01.960Z,58.60
2022-11-02T19:47:35.635Z,58.80
2022-11-02T19:49:09.116Z,58.70
2022-11-02T19:50:43.904Z,58.80
2022-11-02T19:52:17.339Z,59.10
2022-11-02T19:53:52.836Z,59.00
2022-11-02T19:55:29.235Z,59.10
2022-11-02T19:57:02.475Z,59.00
2022-11-02T19:58:35.678Z,59.10
2022-11-02T20:00:11.121Z,59.30
2022-11-02T20:01:47.885Z,59.50
2022-11-02T20:03:20.243Z,60.20
2022-11-02T20:04:53.550Z,59.60
2022-11-02T20:06:32.276Z,59.70
2022-11-02T20:08:06.035Z,59.80
2022-11-02T20:09:39.553Z,59.80
2022-11-02T20:11:16.011Z,59.80
2022-11-02T20:12:49.601Z,59.90
2022-11-02T20:14:22.984Z,60.00
2022-11-02T20:15:57.613Z,60.10
2022-11-02T20:17:38.111Z,60.80
2022-11-02T20:19:19.977Z,60.10
2022-11-02T20:20:52.641Z,60.10
2022-11-02T20:22:27.205Z,60.20
2022-11-02T20:24:01.385Z,60.30
2022-11-02T20:25:34.648Z,60.40
2022-11-02T20:27:08.044Z,60.50
2022-11-02T20:28:44.627Z,60.50
2022-11-02T20:30:19.301Z,60.60
2022-11-02T20:31:52.854Z,60.60
2022-11-02T20:33:26.547Z,60.60
2022-11-02T20:34:59.790Z,60.70
2022-11-02T20:36:33.031Z,60.70
2022-11-02T20:38:07.893Z,60.90
2022-11-02T20:39:41.379Z,60.90
2022-11-02T20:41:16.763Z,60.90
2022-11-02T20:42:50.532Z,61.00
2022-11-02T20:44:23.930Z,61.10
2022-11-02T20:46:31.537Z,61.10
2022-11-02T20:48:01.660Z,61.30
2022-11-02T20:49:49.923Z,61.10
2022-11-02T20:51:25.581Z,61.10
2022-11-02T20:52:59.200Z,61.30
2022-11-02T20:54:33.852Z,60.60
2022-11-02T20:56:07.891Z,61.30
2022-11-02T20:57:41.093Z,61.40
2022-11-02T20:59:14.506Z,61.40
2022-11-02T21:00:48.511Z,61.50
2022-11-02T21:02:22.143Z,61.60
2022-11-02T21:03:55.544Z,61.60
2022-11-02T21:05:28.630Z,61.70
2022-11-02T21:07:01.815Z,61.80
2022-11-02T21:10:15.457Z,61.80
2022-11-02T21:12:06.443Z,61.90
2022-11-02T21:13:53.984Z,61.90
2022-11-02T21:15:27.195Z,61.90
2022-11-02T21:16:59.382Z,61.90
2022-11-02T21:18:33.434Z,62.00
2022-11-02T21:22:03.184Z,62.00
2022-11-02T21:23:37.456Z,62.10
2022-11-02T21:25:12.391Z,62.00
2022-11-02T21:26:46.977Z,62.20
2022-11-02T21:28:20.347Z,62.60